Time;durP1;ratioP1;P1;durP2;ratioP2;P2;SDS_P1;SDS_P2;PMS_P1;PMS_P2;Temp;Humidity;BMP_temperature;BMP_pressure;BME280_temperature;BME280_humidity;BME280_pressure;Samples;Min_cycle;Max_cycle;Signal;HPM_P1;HPM_P2
2023/12/07 00:01:07;;;;;;;9.32;7.68;;;;;;;;;;5052538;28;20580;-70
2023/12/07 00:03:34;;;;;;;9.35;7.78;;;;;;;;;;5052396;28;20201;-70
2023/12/07 00:06:00;;;;;;;9.52;7.63;;;;;;;;;;5052299;28;20232;-70
2023/12/07 00:08:28;;;;;;;10.02;7.60;;;;;;;;;;5052301;28;20205;-70
2023/12/07 00:10:54;;;;;;;9.73;8.23;;;;;;;;;;5052420;28;20221;-70
2023/12/07 00:13:21;;;;;;;9.48;7.72;;;;;;;;;;5052522;28;20250;-70
2023/12/07 00:15:47;;;;;;;8.38;7.55;;;;;;;;;;5052351;28;20494;-70
2023/12/07 00:18:14;;;;;;;8.48;7.60;;;;;;;;;;5052182;28;20830;-70
2023/12/07 00:20:40;;;;;;;10.95;7.95;;;;;;;;;;5051814;28;20223;-70
2023/12/07 00:23:06;;;;;;;9.00;7.93;;;;;;;;;;5052550;28;20240;-70
2023/12/07 00:25:34;;;;;;;9.80;8.50;;;;;;;;;;5052242;28;20244;-70
2023/12/07 00:28:00;;;;;;;12.23;8.48;;;;;;;;;;5052142;28;20708;-71
2023/12/07 00:30:27;;;;;;;13.32;8.20;;;;;;;;;;5052063;28;20247;-71
2023/12/07 00:32:53;;;;;;;9.93;7.72;;;;;;;;;;5052084;28;20205;-71
2023/12/07 00:35:22;;;;;;;11.95;8.40;;;;;;;;;;5051924;28;20216;-71
2023/12/07 00:37:48;;;;;;;10.82;8.93;;;;;;;;;;5051992;28;20681;-71
2023/12/07 00:40:14;;;;;;;11.35;9.63;;;;;;;;;;5052227;28;20247;-71
2023/12/07 00:42:43;;;;;;;12.18;8.85;;;;;;;;;;5052141;28;20212;-71
2023/12/07 00:45:09;;;;;;;10.52;9.15;;;;;;;;;;5051944;28;20221;-71
2023/12/07 00:47:35;;;;;;;10.65;8.68;;;;;;;;;;5051753;28;20209;-70
2023/12/07 00:50:02;;;;;;;13.63;9.68;;;;;;;;;;5051923;28;20239;-71
2023/12/07 00:52:28;;;;;;;10.90;8.73;;;;;;;;;;5051629;28;20569;-71
2023/12/07 00:54:54;;;;;;;12.02;9.48;;;;;;;;;;5051864;28;20791;-71
2023/12/07 00:57:20;;;;;;;11.43;9.30;;;;;;;;;;5052606;28;20567;-70
2023/12/07 00:59:48;;;;;;;10.30;8.50;;;;;;;;;;5051623;28;20600;-71
2023/12/07 01:02:14;;;;;;;10.48;8.80;;;;;;;;;;5051510;28;20209;-71
2023/12/07 01:04:40;;;;;;;12.50;8.65;;;;;;;;;;5051883;28;20225;-71
2023/12/07 01:07:07;;;;;;;11.35;9.07;;;;;;;;;;5063092;28;20498;-71
2023/12/07 01:09:36;;;;;;;12.00;8.40;;;;;;;;;;5061544;28;20275;-71
2023/12/07 01:12:03;;;;;;;10.73;9.20;;;;;;;;;;5067254;28;20201;-71
2023/12/07 01:14:29;;;;;;;10.10;8.52;;;;;;;;;;5051695;28;20662;-71
2023/12/07 01:16:57;;;;;;;11.18;9.32;;;;;;;;;;5051389;28;20340;-70
2023/12/07 01:19:23;;;;;;;10.25;8.43;;;;;;;;;;5051688;28;20235;-71
2023/12/07 01:21:49;;;;;;;11.35;9.48;;;;;;;;;;5051600;28;20205;-71
2023/12/07 01:24:15;;;;;;;11.55;9.43;;;;;;;;;;5051557;28;20255;-71
2023/12/07 01:26:41;;;;;;;15.45;10.15;;;;;;;;;;5051570;28;20255;-70
2023/12/07 01:29:08;;;;;;;11.55;9.75;;;;;;;;;;5051566;28;20205;-70
2023/12/07 01:31:34;;;;;;;11.13;9.32;;;;;;;;;;5051098;28;20228;-70
2023/12/07 01:34:02;;;;;;;12.27;9.95;;;;;;;;;;5054493;28;20201;-71
2023/12/07 01:36:28;;;;;;;14.18;9.88;;;;;;;;;;5055258;28;20713;-70
2023/12/07 01:38:54;;;;;;;18.20;9.98;;;;;;;;;;5055173;28;20205;-70
2023/12/07 01:41:20;;;;;;;15.65;10.55;;;;;;;;;;5055026;28;20201;-70
2023/12/07 01:43:47;;;;;;;14.75;10.30;;;;;;;;;;5055262;28;20212;-71
2023/12/07 01:46:14;;;;;;;13.30;10.43;;;;;;;;;;5054902;28;20225;-70
2023/12/07 01:48:40;;;;;;;11.38;9.68;;;;;;;;;;5055248;28;20208;-70
2023/12/07 01:51:09;;;;;;;12.10;9.63;;;;;;;;;;5055099;28;20236;-70
2023/12/07 01:53:35;;;;;;;14.98;10.32;;;;;;;;;;5055162;28;20209;-70
2023/12/07 01:56:02;;;;;;;16.02;10.52;;;;;;;;;;5054664;28;20260;-70
2023/12/07 01:58:28;;;;;;;12.60;9.48;;;;;;;;;;5054785;28;20201;-70
2023/12/07 02:00:54;;;;;;;11.93;9.73;;;;;;;;;;5054859;28;20201;-70
2023/12/07 02:03:20;;;;;;;12.57;9.70;;;;;;;;;;5054841;28;20288;-71
2023/12/07 02:05:48;;;;;;;13.32;10.55;;;;;;;;;;5054853;28;20228;-70
2023/12/07 02:08:15;;;;;;;12.43;9.70;;;;;;;;;;5054781;28;20197;-70
2023/12/07 02:10:42;;;;;;;13.05;9.85;;;;;;;;;;5054556;28;20217;-71
2023/12/07 02:13:08;;;;;;;14.75;10.20;;;;;;;;;;5054973;28;20205;-70
2023/12/07 02:15:35;;;;;;;13.40;10.00;;;;;;;;;;5055133;28;20221;-70
2023/12/07 02:18:03;;;;;;;11.35;9.90;;;;;;;;;;5055175;28;20263;-70
2023/12/07 02:20:32;;;;;;;12.57;9.85;;;;;;;;;;5055822;28;20201;-71
2023/12/07 02:23:02;;;;;;;13.57;11.00;;;;;;;;;;5056541;28;20283;-70
2023/12/07 02:25:32;;;;;;;13.15;10.43;;;;;;;;;;5056257;28;20835;-71
2023/12/07 02:28:00;;;;;;;15.93;11.20;;;;;;;;;;5054388;28;20258;-71
2023/12/07 02:30:26;;;;;;;14.27;10.48;;;;;;;;;;5054364;28;20232;-71
2023/12/07 02:32:53;;;;;;;17.83;10.70;;;;;;;;;;5054175;28;20201;-71
2023/12/07 02:35:19;;;;;;;16.40;10.45;;;;;;;;;;5054091;28;20229;-71
2023/12/07 02:37:47;;;;;;;14.02;10.13;;;;;;;;;;5054311;28;20638;-71
2023/12/07 02:40:15;;;;;;;13.20;10.45;;;;;;;;;;5054082;28;20284;-71
2023/12/07 02:42:42;;;;;;;12.93;9.85;;;;;;;;;;5054428;28;20237;-70
2023/12/07 02:45:10;;;;;;;10.85;9.15;;;;;;;;;;5053879;28;20221;-70
2023/12/07 02:47:37;;;;;;;11.32;9.65;;;;;;;;;;5053925;28;20197;-70
2023/12/07 02:50:04;;;;;;;10.55;8.57;;;;;;;;;;5053788;28;20221;-70
2023/12/07 02:52:30;;;;;;;13.57;9.90;;;;;;;;;;5053834;28;20201;-71
2023/12/07 02:54:56;;;;;;;10.65;9.00;;;;;;;;;;5054004;28;20233;-71
2023/12/07 02:57:22;;;;;;;12.23;9.52;;;;;;;;;;5054120;28;20212;-71
2023/12/07 02:59:49;;;;;;;10.00;9.00;;;;;;;;;;5055138;28;20205;-71
2023/12/07 03:02:16;;;;;;;9.77;8.57;;;;;;;;;;5055670;28;20208;-71
2023/12/07 03:04:42;;;;;;;10.85;9.05;;;;;;;;;;5053803;28;20363;-71
2023/12/07 03:07:09;;;;;;;12.50;9.60;;;;;;;;;;5053753;28;20205;-70
2023/12/07 03:09:35;;;;;;;14.23;9.45;;;;;;;;;;5053449;28;20629;-70
2023/12/07 03:12:01;;;;;;;11.75;9.70;;;;;;;;;;5059319;28;20637;-70
2023/12/07 03:14:27;;;;;;;10.18;9.13;;;;;;;;;;5067185;28;20739;-70
2023/12/07 03:16:54;;;;;;;13.00;9.45;;;;;;;;;;5071227;28;20197;-70
2023/12/07 03:19:21;;;;;;;9.57;8.60;;;;;;;;;;5070415;28;20205;-70
2023/12/07 03:21:48;;;;;;;11.90;9.63;;;;;;;;;;5070054;28;20201;-70
2023/12/07 03:24:14;;;;;;;11.80;9.43;;;;;;;;;;5070479;28;20258;-70
2023/12/07 03:26:40;;;;;;;11.77;8.80;;;;;;;;;;5068768;28;20221;-70
2023/12/07 03:29:06;;;;;;;10.40;8.98;;;;;;;;;;5060870;28;20251;-71
2023/12/07 03:31:33;;;;;;;10.38;8.68;;;;;;;;;;5070166;28;20220;-70
2023/12/07 03:34:00;;;;;;;9.35;8.13;;;;;;;;;;5069813;28;20216;-70
2023/12/07 03:36:28;;;;;;;9.50;8.30;;;;;;;;;;5057191;28;20274;-71
2023/12/07 03:38:54;;;;;;;11.57;8.55;;;;;;;;;;5056592;28;20201;-70
2023/12/07 03:41:20;;;;;;;10.32;8.35;;;;;;;;;;5064553;28;20246;-70
2023/12/07 03:43:47;;;;;;;10.98;9.68;;;;;;;;;;5064217;28;20205;-70
2023/12/07 03:46:13;;;;;;;11.15;9.25;;;;;;;;;;5062612;28;20279;-70
2023/12/07 03:48:40;;;;;;;9.50;8.15;;;;;;;;;;5053165;28;20205;-71
2023/12/07 03:51:06;;;;;;;10.38;9.38;;;;;;;;;;5055182;28;20715;-71
2023/12/07 03:53:33;;;;;;;9.98;8.98;;;;;;;;;;5053461;28;20209;-70
2023/12/07 03:56:00;;;;;;;10.02;8.98;;;;;;;;;;5052429;28;20228;-70
2023/12/07 03:58:26;;;;;;;10.20;8.60;;;;;;;;;;5052675;28;20212;-70
2023/12/07 04:00:52;;;;;;;9.00;7.75;;;;;;;;;;5052974;28;20243;-70
2023/12/07 04:03:18;;;;;;;10.77;8.65;;;;;;;;;;5053682;28;20708;-70
2023/12/07 04:05:45;;;;;;;11.32;8.77;;;;;;;;;;5058084;28;20224;-70
2023/12/07 04:08:11;;;;;;;11.18;8.75;;;;;;;;;;5072532;28;20205;-70
2023/12/07 04:10:40;;;;;;;10.05;8.68;;;;;;;;;;5072688;28;20228;-71
2023/12/07 04:13:06;;;;;;;9.05;8.15;;;;;;;;;;5072479;28;20200;-70
2023/12/07 04:15:32;;;;;;;10.20;8.68;;;;;;;;;;5072411;28;20224;-70
2023/12/07 04:17:58;;;;;;;9.27;7.88;;;;;;;;;;5072096;28;20207;-70
2023/12/07 04:20:25;;;;;;;9.80;8.40;;;;;;;;;;5072292;28;20257;-70
2023/12/07 04:22:52;;;;;;;10.80;8.60;;;;;;;;;;5072144;28;20208;-70
2023/12/07 04:25:18;;;;;;;10.45;8.25;;;;;;;;;;5072319;28;20220;-71
2023/12/07 04:27:45;;;;;;;8.75;7.85;;;;;;;;;;5072258;28;20249;-70
2023/12/07 04:30:13;;;;;;;11.07;9.13;;;;;;;;;;5071950;28;20250;-70
2023/12/07 04:32:39;;;;;;;9.20;8.30;;;;;;;;;;5071751;28;20602;-70
2023/12/07 04:35:06;;;;;;;9.93;8.52;;;;;;;;;;5071199;28;20308;-70
2023/12/07 04:37:32;;;;;;;9.02;8.00;;;;;;;;;;5069264;28;20204;-70
2023/12/07 04:39:59;;;;;;;10.00;7.80;;;;;;;;;;5068836;28;20234;-70
2023/12/07 04:42:25;;;;;;;9.98;8.88;;;;;;;;;;5068928;28;20644;-70
2023/12/07 04:44:52;;;;;;;11.07;8.65;;;;;;;;;;5068545;28;20878;-71
2023/12/07 04:47:19;;;;;;;9.10;8.20;;;;;;;;;;5068201;28;20673;-71
2023/12/07 04:49:45;;;;;;;10.05;8.73;;;;;;;;;;5068270;28;20229;-71
2023/12/07 04:52:11;;;;;;;10.48;9.13;;;;;;;;;;5071141;28;20224;-71
2023/12/07 04:54:38;;;;;;;11.73;9.07;;;;;;;;;;5070793;28;20224;-71
2023/12/07 04:57:04;;;;;;;10.05;8.68;;;;;;;;;;5071115;28;20205;-70
2023/12/07 04:59:30;;;;;;;9.77;8.50;;;;;;;;;;5070806;28;20576;-71
2023/12/07 05:01:58;;;;;;;9.85;8.50;;;;;;;;;;5070730;28;20675;-71
2023/12/07 05:04:24;;;;;;;9.95;8.90;;;;;;;;;;5071246;28;20201;-70
2023/12/07 05:06:51;;;;;;;9.73;8.80;;;;;;;;;;5073876;28;20429;-71
2023/12/07 05:09:17;;;;;;;12.32;9.45;;;;;;;;;;5077566;28;20196;-71
2023/12/07 05:11:45;;;;;;;11.38;9.48;;;;;;;;;;5075759;28;20220;-71
2023/12/07 05:14:11;;;;;;;10.48;8.90;;;;;;;;;;5075765;28;20694;-71
2023/12/07 05:16:37;;;;;;;12.43;9.02;;;;;;;;;;5075563;28;20277;-70
2023/12/07 05:19:05;;;;;;;11.18;9.88;;;;;;;;;;5075876;28;20197;-70
2023/12/07 05:21:32;;;;;;;12.35;9.32;;;;;;;;;;5075614;28;20204;-70
2023/12/07 05:23:58;;;;;;;10.90;9.15;;;;;;;;;;5075861;28;20201;-71
2023/12/07 05:26:24;;;;;;;12.65;9.70;;;;;;;;;;5075623;28;20228;-71
2023/12/07 05:28:51;;;;;;;12.30;9.68;;;;;;;;;;5075371;28;20208;-71
2023/12/07 05:31:18;;;;;;;10.70;9.60;;;;;;;;;;5074974;28;20224;-71
2023/12/07 05:33:44;;;;;;;10.50;9.13;;;;;;;;;;5075441;28;20207;-70
2023/12/07 05:36:12;;;;;;;11.77;9.85;;;;;;;;;;5075629;28;20224;-70
2023/12/07 05:38:38;;;;;;;10.02;8.85;;;;;;;;;;5077031;28;20200;-70
2023/12/07 05:41:04;;;;;;;11.48;9.57;;;;;;;;;;5077447;28;20250;-70
2023/12/07 05:43:30;;;;;;;11.85;9.65;;;;;;;;;;5076744;28;20197;-70
2023/12/07 05:45:57;;;;;;;13.68;10.18;;;;;;;;;;5075278;28;20292;-71
2023/12/07 05:48:23;;;;;;;11.35;9.40;;;;;;;;;;5075084;28;20208;-71
2023/12/07 05:50:49;;;;;;;10.48;9.23;;;;;;;;;;5075042;28;20208;-71
2023/12/07 05:53:17;;;;;;;9.98;8.77;;;;;;;;;;5075618;28;20200;-70
2023/12/07 05:55:43;;;;;;;11.43;9.15;;;;;;;;;;5073658;28;20309;-70
2023/12/07 05:58:09;;;;;;;10.93;9.35;;;;;;;;;;5074898;28;20237;-71
2023/12/07 06:00:37;;;;;;;11.82;9.15;;;;;;;;;;5075061;28;20204;-71
2023/12/07 06:03:03;;;;;;;9.23;8.25;;;;;;;;;;5074939;28;20207;-71
2023/12/07 06:05:30;;;;;;;9.88;8.45;;;;;;;;;;5074869;28;20592;-71
2023/12/07 06:07:56;;;;;;;10.60;8.50;;;;;;;;;;5074744;28;20200;-71
2023/12/07 06:10:24;;;;;;;10.43;8.52;;;;;;;;;;5074644;28;20211;-71
2023/12/07 06:12:50;;;;;;;8.95;8.05;;;;;;;;;;5074326;28;20228;-71
2023/12/07 06:15:16;;;;;;;10.20;9.02;;;;;;;;;;5074302;28;20221;-71
2023/12/07 06:17:42;;;;;;;10.38;9.32;;;;;;;;;;5074390;28;20254;-71
2023/12/07 06:20:09;;;;;;;11.25;8.90;;;;;;;;;;5074067;28;20208;-70
2023/12/07 06:22:35;;;;;;;10.27;9.13;;;;;;;;;;5074505;28;20197;-70
2023/12/07 06:25:01;;;;;;;13.23;8.60;;;;;;;;;;5074370;28;20228;-70
2023/12/07 06:27:29;;;;;;;11.45;9.65;;;;;;;;;;5074569;28;20242;-70
2023/12/07 06:29:55;;;;;;;12.02;8.75;;;;;;;;;;5074390;28;20200;-70
2023/12/07 06:32:21;;;;;;;9.23;8.07;;;;;;;;;;5074038;28;20228;-70
2023/12/07 06:34:48;;;;;;;12.23;9.02;;;;;;;;;;5074329;28;20266;-70
2023/12/07 06:37:14;;;;;;;11.18;9.30;;;;;;;;;;5074792;28;20208;-71
2023/12/07 06:39:40;;;;;;;11.07;9.88;;;;;;;;;;5076089;28;20207;-57
2023/12/07 06:42:07;;;;;;;11.30;9.55;;;;;;;;;;5078802;28;20250;-56
2023/12/07 06:44:35;;;;;;;11.32;9.50;;;;;;;;;;5079307;28;20208;-58
2023/12/07 06:47:03;;;;;;;10.27;8.63;;;;;;;;;;5080050;28;20612;-58
2023/12/07 06:49:29;;;;;;;12.85;8.95;;;;;;;;;;5079244;28;20219;-58
2023/12/07 06:51:55;;;;;;;12.70;9.35;;;;;;;;;;5079110;28;20696;-57
2023/12/07 06:54:22;;;;;;;10.20;8.82;;;;;;;;;;5079490;28;20334;-57
2023/12/07 06:56:48;;;;;;;10.75;8.88;;;;;;;;;;5079550;28;20227;-56
2023/12/07 06:59:14;;;;;;;13.13;8.63;;;;;;;;;;5079547;28;20258;-58
2023/12/07 07:01:42;;;;;;;10.75;9.63;;;;;;;;;;5079692;28;20196;-58
2023/12/07 07:04:08;;;;;;;10.50;9.05;;;;;;;;;;5079536;28;20254;-58
2023/12/07 07:06:35;;;;;;;13.25;10.02;;;;;;;;;;5079516;28;20244;-58
2023/12/07 07:09:01;;;;;;;11.55;10.07;;;;;;;;;;5079256;28;20273;-58
2023/12/07 07:11:28;;;;;;;12.70;10.52;;;;;;;;;;5079657;28;20216;-58
2023/12/07 07:13:55;;;;;;;13.40;10.57;;;;;;;;;;5078742;28;20204;-58
2023/12/07 07:16:21;;;;;;;12.38;9.80;;;;;;;;;;5078909;28;20270;-58
2023/12/07 07:18:48;;;;;;;13.50;10.65;;;;;;;;;;5080166;28;20524;-57
2023/12/07 07:21:15;;;;;;;15.13;10.77;;;;;;;;;;5079241;28;20664;-58
2023/12/07 07:23:41;;;;;;;13.27;9.80;;;;;;;;;;5079013;28;20226;-58
2023/12/07 07:26:08;;;;;;;14.95;9.98;;;;;;;;;;5078880;28;20711;-57
2023/12/07 07:28:34;;;;;;;13.23;10.15;;;;;;;;;;5078727;28;20313;-57
2023/12/07 07:31:00;;;;;;;18.77;10.10;;;;;;;;;;5077437;28;20227;-58
2023/12/07 07:33:27;;;;;;;14.52;9.98;;;;;;;;;;5079077;28;20224;-58
2023/12/07 07:35:55;;;;;;;12.45;10.15;;;;;;;;;;5078120;28;20220;-58
2023/12/07 07:38:21;;;;;;;12.07;9.85;;;;;;;;;;5078561;28;20737;-58
2023/12/07 07:40:48;;;;;;;11.52;9.60;;;;;;;;;;5078822;28;20200;-57
2023/12/07 07:43:14;;;;;;;13.75;10.88;;;;;;;;;;5079246;28;20665;-56
2023/12/07 07:45:41;;;;;;;13.50;10.68;;;;;;;;;;5078857;28;20639;-59
2023/12/07 07:48:07;;;;;;;11.90;9.77;;;;;;;;;;5078398;28;20231;-60
2023/12/07 07:50:36;;;;;;;14.00;9.80;;;;;;;;;;5078821;28;20204;-58
2023/12/07 07:53:04;;;;;;;14.45;10.48;;;;;;;;;;5077366;28;20228;-58
2023/12/07 07:55:30;;;;;;;15.30;11.48;;;;;;;;;;5077590;28;20228;-58
2023/12/07 07:57:57;;;;;;;15.50;10.57;;;;;;;;;;5077659;28;20204;-58
2023/12/07 08:00:25;;;;;;;15.77;11.43;;;;;;;;;;5076553;28;20234;-56
2023/12/07 08:02:52;;;;;;;15.45;11.85;;;;;;;;;;5076803;28;20204;-57
2023/12/07 08:05:18;;;;;;;16.20;13.02;;;;;;;;;;5076126;28;20220;-58
2023/12/07 08:07:44;;;;;;;15.63;11.52;;;;;;;;;;5076618;28;20212;-58
2023/12/07 08:10:12;;;;;;;16.15;12.68;;;;;;;;;;5076932;28;20204;-57
2023/12/07 08:12:40;;;;;;;14.35;11.75;;;;;;;;;;5077093;28;20220;-57
2023/12/07 08:15:10;;;;;;;16.77;11.57;;;;;;;;;;5078326;28;20224;-58
2023/12/07 08:17:36;;;;;;;13.60;10.85;;;;;;;;;;5078299;28;20224;-58
2023/12/07 08:20:03;;;;;;;16.42;11.35;;;;;;;;;;5077530;28;20270;-58
2023/12/07 08:22:30;;;;;;;14.15;11.20;;;;;;;;;;5077965;28;20197;-58
2023/12/07 08:24:56;;;;;;;12.82;10.60;;;;;;;;;;5077729;28;20823;-58
2023/12/07 08:27:24;;;;;;;14.05;11.63;;;;;;;;;;5077720;28;20725;-58
2023/12/07 08:29:51;;;;;;;20.63;12.13;;;;;;;;;;5077961;28;20227;-58
2023/12/07 08:32:18;;;;;;;16.83;12.20;;;;;;;;;;5078181;28;20277;-58
2023/12/07 08:34:45;;;;;;;19.65;12.18;;;;;;;;;;5078024;28;20252;-58
2023/12/07 08:37:11;;;;;;;16.83;11.80;;;;;;;;;;5078018;28;20204;-58
2023/12/07 08:39:37;;;;;;;18.83;12.05;;;;;;;;;;5078044;28;20212;-58
2023/12/07 08:42:04;;;;;;;19.67;12.13;;;;;;;;;;5078116;28;20261;-58
2023/12/07 08:44:32;;;;;;;17.13;11.75;;;;;;;;;;5078683;28;20204;-59
2023/12/07 08:46:58;;;;;;;17.10;11.80;;;;;;;;;;5077395;28;20735;-58
2023/12/07 08:49:25;;;;;;;16.45;11.90;;;;;;;;;;5077912;28;20200;-59
2023/12/07 08:51:52;;;;;;;18.75;12.57;;;;;;;;;;5077273;28;20274;-59
2023/12/07 08:54:19;;;;;;;16.73;12.90;;;;;;;;;;5077341;28;20551;-60
2023/12/07 08:56:45;;;;;;;25.38;13.50;;;;;;;;;;5076187;28;20270;-58
2023/12/07 08:59:12;;;;;;;22.38;14.45;;;;;;;;;;5077371;28;20292;-58
2023/12/07 09:01:40;;;;;;;19.10;13.20;;;;;;;;;;5076836;28;20200;-58
2023/12/07 09:04:06;;;;;;;22.08;13.95;;;;;;;;;;5077505;28;20204;-58
2023/12/07 09:06:33;;;;;;;22.50;13.05;;;;;;;;;;5077108;28;20271;-57
2023/12/07 09:08:59;;;;;;;17.90;11.55;;;;;;;;;;5077027;28;20208;-57
2023/12/07 09:11:25;;;;;;;13.68;10.05;;;;;;;;;;5076985;28;20204;-57
2023/12/07 09:13:51;;;;;;;16.20;11.15;;;;;;;;;;5076459;28;20224;-57
2023/12/07 09:16:18;;;;;;;13.60;10.63;;;;;;;;;;5076769;28;20254;-57
2023/12/07 09:18:46;;;;;;;13.40;10.65;;;;;;;;;;5077527;28;20208;-57
2023/12/07 09:21:12;;;;;;;20.95;11.07;;;;;;;;;;5076767;28;20295;-57
2023/12/07 09:23:38;;;;;;;17.25;13.57;;;;;;;;;;5077074;28;20200;-59
2023/12/07 09:26:05;;;;;;;17.95;12.52;;;;;;;;;;5076954;28;20711;-57
2023/12/07 09:28:32;;;;;;;21.00;12.73;;;;;;;;;;5077017;28;20204;-57
2023/12/07 09:30:59;;;;;;;20.27;12.48;;;;;;;;;;5076879;28;20204;-59
2023/12/07 09:33:25;;;;;;;20.95;12.93;;;;;;;;;;5077531;28;20225;-57
2023/12/07 09:35:53;;;;;;;22.55;12.95;;;;;;;;;;5077301;28;20278;-55
2023/12/07 09:38:19;;;;;;;17.63;12.18;;;;;;;;;;5076904;28;20200;-58
2023/12/07 09:40:46;;;;;;;19.35;12.82;;;;;;;;;;5076416;28;20200;-59
2023/12/07 09:43:13;;;;;;;14.93;11.95;;;;;;;;;;5077017;28;20203;-57
2023/12/07 09:45:39;;;;;;;16.08;11.90;;;;;;;;;;5076869;28;20265;-57
2023/12/07 09:48:06;;;;;;;17.95;11.57;;;;;;;;;;5076998;28;20201;-57
2023/12/07 09:50:32;;;;;;;17.80;11.43;;;;;;;;;;5077614;28;20204;-59
2023/12/07 09:53:00;;;;;;;13.50;10.75;;;;;;;;;;5076885;28;20329;-57
2023/12/07 09:55:26;;;;;;;14.10;10.80;;;;;;;;;;5079805;28;20259;-59
2023/12/07 09:57:54;;;;;;;13.25;11.32;;;;;;;;;;5079810;28;20204;-57
2023/12/07 10:00:20;;;;;;;14.93;11.57;;;;;;;;;;5080639;28;20200;-57
2023/12/07 10:02:47;;;;;;;15.18;12.13;;;;;;;;;;5080284;28;20196;-55
2023/12/07 10:05:14;;;;;;;19.00;12.27;;;;;;;;;;5080429;28;20240;-57
2023/12/07 10:07:41;;;;;;;15.27;12.45;;;;;;;;;;5080441;28;20196;-57
2023/12/07 10:10:11;;;;;;;15.75;12.13;;;;;;;;;;5080576;28;20250;-58
2023/12/07 10:12:46;;;;;;;15.02;12.75;;;;;;;;;;5079929;28;20523;-57
2023/12/07 10:15:13;;;;;;;15.18;11.70;;;;;;;;;;5080162;28;20216;-58
2023/12/07 10:17:49;;;;;;;14.05;11.75;;;;;;;;;;5079788;28;20196;-58
2023/12/07 10:20:16;;;;;;;14.40;12.32;;;;;;;;;;5079103;28;20204;-58
2023/12/07 10:22:42;;;;;;;12.40;11.05;;;;;;;;;;5079431;28;20196;-58
2023/12/07 10:25:10;;;;;;;13.95;11.43;;;;;;;;;;5079824;28;20231;-58
2023/12/07 10:27:38;;;;;;;13.60;12.13;;;;;;;;;;5079803;28;20217;-58
2023/12/07 10:30:05;;;;;;;14.65;11.23;;;;;;;;;;5079315;28;20619;-58
2023/12/07 10:32:32;;;;;;;13.73;10.43;;;;;;;;;;5080213;28;20220;-58
2023/12/07 10:35:01;;;;;;;28.63;12.00;;;;;;;;;;5079272;28;20224;-58
2023/12/07 10:37:27;;;;;;;17.05;11.82;;;;;;;;;;5078323;28;20224;-58
2023/12/07 10:39:53;;;;;;;12.20;10.88;;;;;;;;;;5078463;28;20254;-58
2023/12/07 10:42:21;;;;;;;15.35;10.85;;;;;;;;;;5079699;28;20677;-58
2023/12/07 10:44:49;;;;;;;11.73;10.30;;;;;;;;;;5079457;28;20224;-58
2023/12/07 10:47:15;;;;;;;14.30;10.95;;;;;;;;;;5079240;28;20278;-58
2023/12/07 10:49:43;;;;;;;13.90;11.02;;;;;;;;;;5078639;28;20608;-58
2023/12/07 10:52:12;;;;;;;14.18;10.70;;;;;;;;;;5079249;28;20200;-58
2023/12/07 10:54:42;;;;;;;13.80;10.77;;;;;;;;;;5077576;28;20634;-58
2023/12/07 10:57:09;;;;;;;11.63;10.43;;;;;;;;;;5078872;28;20188;-58
2023/12/07 10:59:37;;;;;;;13.48;10.80;;;;;;;;;;5078629;28;20200;-58
2023/12/07 11:02:06;;;;;;;12.95;10.25;;;;;;;;;;5079136;28;20688;-58
2023/12/07 11:04:32;;;;;;;12.90;9.73;;;;;;;;;;5078110;28;20242;-58
2023/12/07 11:07:03;;;;;;;14.35;9.98;;;;;;;;;;5078010;28;20204;-58
2023/12/07 11:09:33;;;;;;;16.20;10.50;;;;;;;;;;5078983;28;20211;-58
2023/12/07 11:12:02;;;;;;;12.82;9.57;;;;;;;;;;5078809;28;20211;-58
2023/12/07 11:14:28;;;;;;;10.88;8.65;;;;;;;;;;5078851;28;20232;-58
2023/12/07 11:16:58;;;;;;;11.90;8.38;;;;;;;;;;5078205;28;20619;-58
2023/12/07 11:19:39;;;;;;;9.10;8.20;;;;;;;;;;5078853;28;20197;-56
2023/12/07 11:22:07;;;;;;;8.98;8.05;;;;;;;;;;5078719;28;20205;-56
2023/12/07 11:24:33;;;;;;;11.90;8.82;;;;;;;;;;5077749;28;20200;-58
2023/12/07 11:27:00;;;;;;;10.40;9.05;;;;;;;;;;5079516;28;20258;-57
2023/12/07 11:29:26;;;;;;;11.93;9.25;;;;;;;;;;5079082;28;20197;-58
2023/12/07 11:31:53;;;;;;;12.18;8.18;;;;;;;;;;5080199;28;20280;-58
2023/12/07 11:34:34;;;;;;;9.07;7.82;;;;;;;;;;5079332;28;20224;-58
2023/12/07 11:37:00;;;;;;;10.27;7.40;;;;;;;;;;5080713;28;20664;-57
2023/12/07 11:39:26;;;;;;;11.30;7.35;;;;;;;;;;5080922;28;20575;-58
2023/12/07 11:41:54;;;;;;;8.95;6.88;;;;;;;;;;5081509;28;20208;-58
2023/12/07 11:44:24;;;;;;;9.77;7.45;;;;;;;;;;5080459;28;20220;-58
2023/12/07 11:46:51;;;;;;;8.15;6.40;;;;;;;;;;5080369;28;20638;-57
2023/12/07 11:49:17;;;;;;;6.10;5.60;;;;;;;;;;5081940;28;20274;-55
2023/12/07 11:51:45;;;;;;;6.50;5.90;;;;;;;;;;5081417;28;20235;-58
2023/12/07 11:54:11;;;;;;;6.88;6.38;;;;;;;;;;5081950;28;20221;-58
2023/12/07 11:56:37;;;;;;;11.32;6.72;;;;;;;;;;5081451;28;20738;-57
2023/12/07 11:59:04;;;;;;;7.82;6.18;;;;;;;;;;5081577;28;20204;-58
2023/12/07 12:01:31;;;;;;;5.93;5.20;;;;;;;;;;5082697;28;20207;-58
2023/12/07 12:03:57;;;;;;;6.40;5.38;;;;;;;;;;5081826;28;20207;-58
2023/12/07 12:06:24;;;;;;;5.38;4.80;;;;;;;;;;5081612;28;20219;-58
2023/12/07 12:08:52;;;;;;;5.00;4.55;;;;;;;;;;5081470;28;20200;-58
2023/12/07 12:11:18;;;;;;;5.63;4.40;;;;;;;;;;5077340;28;20208;-58
2023/12/07 12:13:46;;;;;;;6.03;5.50;;;;;;;;;;5077094;28;20226;-58
2023/12/07 12:16:12;;;;;;;5.07;4.47;;;;;;;;;;5078654;28;20229;-58
2023/12/07 12:18:38;;;;;;;6.90;4.90;;;;;;;;;;5079744;28;20204;-58
2023/12/07 12:21:07;;;;;;;7.68;4.80;;;;;;;;;;5079328;28;20201;-59
2023/12/07 12:23:34;;;;;;;5.28;4.82;;;;;;;;;;5079657;28;20199;-59
2023/12/07 12:26:02;;;;;;;4.57;4.30;;;;;;;;;;5079662;28;20640;-59
2023/12/07 12:28:28;;;;;;;5.15;4.60;;;;;;;;;;5079389;28;20200;-58
2023/12/07 12:30:55;;;;;;;9.43;4.68;;;;;;;;;;5078863;28;20211;-58
2023/12/07 12:33:21;;;;;;;5.65;4.45;;;;;;;;;;5080547;28;20273;-58
2023/12/07 12:36:00;;;;;;;4.90;4.50;;;;;;;;;;5080272;28;20220;-59
2023/12/07 12:38:26;;;;;;;4.57;4.20;;;;;;;;;;5080654;28;20185;-59
2023/12/07 12:40:53;;;;;;;5.10;4.55;;;;;;;;;;5080572;28;20199;-58
2023/12/07 12:43:21;;;;;;;5.03;4.63;;;;;;;;;;5079608;28;20196;-57
2023/12/07 12:45:48;;;;;;;6.68;4.68;;;;;;;;;;5079603;28;20224;-57
2023/12/07 12:48:14;;;;;;;4.70;4.30;;;;;;;;;;5079845;28;20596;-57
2023/12/07 12:50:41;;;;;;;5.32;4.32;;;;;;;;;;5079789;28;20651;-58
2023/12/07 12:53:09;;;;;;;5.53;4.97;;;;;;;;;;5078947;28;20228;-57
2023/12/07 12:55:36;;;;;;;6.65;4.50;;;;;;;;;;5079681;28;20232;-58
2023/12/07 12:58:04;;;;;;;4.70;4.20;;;;;;;;;;5080033;28;20204;-57
2023/12/07 13:00:32;;;;;;;7.22;4.47;;;;;;;;;;5079956;28;20204;-58
2023/12/07 13:02:58;;;;;;;4.03;3.72;;;;;;;;;;5079495;28;20668;-57
2023/12/07 13:05:25;;;;;;;6.43;3.97;;;;;;;;;;5079863;28;20220;-58
2023/12/07 13:07:51;;;;;;;4.43;4.03;;;;;;;;;;5079107;28;20211;-58
2023/12/07 13:10:17;;;;;;;4.43;3.92;;;;;;;;;;5078812;28;20200;-58
2023/12/07 13:12:45;;;;;;;7.20;4.07;;;;;;;;;;5079795;28;20622;-58
2023/12/07 13:15:12;;;;;;;5.07;4.53;;;;;;;;;;5079232;28;20324;-60
2023/12/07 13:17:40;;;;;;;4.35;3.65;;;;;;;;;;5079850;28;20265;-58
2023/12/07 13:20:07;;;;;;;3.90;3.60;;;;;;;;;;5080053;28;20295;-58
2023/12/07 13:22:33;;;;;;;4.07;3.33;;;;;;;;;;5079998;28;20224;-58
2023/12/07 13:25:00;;;;;;;3.40;3.15;;;;;;;;;;5079775;28;20762;-58
2023/12/07 13:27:26;;;;;;;2.47;2.28;;;;;;;;;;5079315;28;20254;-58
2023/12/07 13:29:53;;;;;;;3.30;2.30;;;;;;;;;;5083015;28;20227;-58
2023/12/07 13:32:19;;;;;;;2.78;1.70;;;;;;;;;;5083737;28;20196;-57
2023/12/07 13:34:46;;;;;;;1.27;1.17;;;;;;;;;;5081728;28;20236;-57
2023/12/07 13:37:13;;;;;;;1.48;1.48;;;;;;;;;;5081638;28;20196;-57
2023/12/07 13:39:39;;;;;;;2.47;1.88;;;;;;;;;;5080875;28;20204;-59
2023/12/07 13:42:05;;;;;;;1.35;1.25;;;;;;;;;;5080376;28;20200;-58
2023/12/07 13:44:32;;;;;;;1.58;1.48;;;;;;;;;;5081591;28;20253;-58
2023/12/07 13:46:58;;;;;;;1.80;1.70;;;;;;;;;;5080234;28;20251;-58
2023/12/07 13:49:25;;;;;;;1.85;1.75;;;;;;;;;;5080347;28;20257;-57
2023/12/07 13:51:52;;;;;;;2.55;1.63;;;;;;;;;;5081551;28;20250;-57
2023/12/07 13:54:18;;;;;;;2.35;1.70;;;;;;;;;;5080309;28;20216;-56
2023/12/07 13:56:45;;;;;;;2.20;1.70;;;;;;;;;;5080746;28;20208;-58
2023/12/07 13:59:13;;;;;;;1.80;1.63;;;;;;;;;;5080645;28;20227;-56
2023/12/07 14:01:40;;;;;;;3.53;2.10;;;;;;;;;;5079889;28;20208;-58
2023/12/07 14:04:06;;;;;;;1.50;1.42;;;;;;;;;;5080734;28;20260;-57
2023/12/07 14:06:35;;;;;;;2.30;2.10;;;;;;;;;;5080434;28;20228;-59
2023/12/07 14:09:03;;;;;;;2.00;1.90;;;;;;;;;;5080343;28;20200;-58
2023/12/07 14:11:29;;;;;;;1.70;1.60;;;;;;;;;;5080730;28;20283;-59
2023/12/07 14:13:56;;;;;;;2.92;1.95;;;;;;;;;;5079997;28;20216;-58
2023/12/07 14:16:22;;;;;;;3.78;2.22;;;;;;;;;;5079816;28;20591;-57
2023/12/07 14:18:48;;;;;;;2.53;2.30;;;;;;;;;;5080262;28;20518;-58
2023/12/07 14:21:19;;;;;;;2.35;2.15;;;;;;;;;;5079805;28;20630;-60
2023/12/07 14:23:45;;;;;;;4.53;2.55;;;;;;;;;;5080188;28;20223;-58
2023/12/07 14:26:13;;;;;;;4.97;2.05;;;;;;;;;;5078904;28;20708;-58
2023/12/07 14:28:39;;;;;;;2.60;2.38;;;;;;;;;;5079409;28;20200;-57